createdAt,value
2019-06-20T20:00:27.190Z,23.26
2019-06-20T20:02:55.261Z,29.07
2019-06-20T20:05:23.840Z,29.93
2019-06-20T20:07:52.325Z,30.41
2019-06-20T20:10:24.797Z,30.63
2019-06-20T20:13:01.231Z,30.90
2019-06-20T20:15:29.657Z,30.64
2019-06-20T20:17:58.116Z,30.83
2019-06-20T20:20:26.775Z,30.98
2019-06-20T20:22:56.434Z,31.25
2019-06-20T20:25:24.820Z,31.13
2019-06-20T20:27:53.617Z,31.40
2019-06-20T20:30:21.821Z,31.52
2019-06-20T20:32:50.149Z,31.60
2019-06-20T20:35:34.275Z,31.64
2019-06-20T20:37:48.176Z,31.61
2019-06-20T20:40:16.572Z,31.59
2019-06-20T20:42:44.949Z,31.60
2019-06-20T20:45:13.657Z,31.67
2019-06-20T20:47:41.946Z,31.80
2019-06-20T20:50:10.078Z,31.81
2019-06-20T20:52:39.124Z,31.73
2019-06-20T20:55:08.527Z,31.81
2019-06-20T20:57:37.126Z,31.77
2019-06-20T21:00:05.823Z,31.78
2019-06-20T21:02:34.033Z,31.97
2019-06-20T21:05:02.429Z,31.89
2019-06-20T21:07:32.308Z,32.03
2019-06-20T21:10:00.844Z,31.64
2019-06-20T21:12:28.993Z,31.68
2019-06-20T21:14:57.272Z,31.74
2019-06-20T21:17:25.898Z,31.98
2019-06-20T21:19:54.607Z,32.07
2019-06-20T21:22:23.615Z,31.92
2019-06-20T21:24:52.366Z,32.02
2019-06-20T21:27:21.486Z,32.10
2019-06-20T21:29:50.031Z,31.97
2019-06-20T21:32:18.208Z,31.97
2019-06-20T21:34:46.376Z,32.09
2019-06-20T21:37:14.887Z,32.24
2019-06-20T21:39:44.166Z,32.23
2019-06-20T21:42:12.936Z,32.41
2019-06-20T21:44:41.938Z,32.31
2019-06-20T21:47:10.164Z,32.39
2019-06-20T21:53:35.170Z,32.66
2019-06-20T21:56:45.588Z,32.59
2019-06-20T21:59:14.044Z,32.57
2019-06-20T22:01:42.274Z,32.64
2019-06-20T22:04:11.190Z,32.24
2019-06-20T22:06:39.574Z,32.39
2019-06-20T22:09:08.289Z,32.42
2019-06-20T22:11:36.808Z,32.19
2019-06-20T22:14:05.609Z,32.24
2019-06-20T22:16:34.009Z,32.38
2019-06-20T22:19:02.989Z,32.64
2019-06-20T22:21:32.150Z,32.53
2019-06-20T22:24:00.795Z,32.62
2019-06-20T22:26:29.547Z,32.50
2019-06-20T22:30:48.420Z,32.84
2019-06-20T22:33:25.991Z,32.90
2019-06-20T22:35:55.027Z,32.52
2019-06-20T22:38:24.143Z,32.52
2019-06-20T22:40:53.287Z,32.51
2019-06-20T22:43:21.884Z,32.63
2019-06-20T22:45:50.185Z,32.63
2019-06-20T22:48:18.472Z,32.75
2019-06-20T22:50:46.905Z,32.66
2019-06-20T22:53:15.389Z,32.67
2019-06-20T22:55:43.792Z,32.66
2019-06-20T22:58:12.342Z,32.89
2019-06-20T23:00:40.951Z,33.13
2019-06-20T23:03:10.772Z,32.95
2019-06-20T23:05:39.415Z,32.81
2019-06-20T23:08:07.616Z,32.92
2019-06-20T23:10:36.085Z,32.90
2019-06-20T23:13:04.670Z,32.88
2019-06-20T23:15:33.266Z,32.82
2019-06-20T23:18:01.491Z,32.66
2019-06-20T23:20:31.375Z,32.56
2019-06-20T23:22:59.570Z,32.54
2019-06-20T23:25:28.093Z,32.83
2019-06-20T23:27:56.822Z,32.61
2019-06-20T23:30:25.461Z,32.91
2019-06-20T23:32:54.181Z,32.86
2019-06-20T23:35:23.410Z,32.81
2019-06-20T23:37:51.534Z,32.78
2019-06-20T23:40:19.747Z,32.74
2019-06-20T23:42:48.718Z,32.72
2019-06-20T23:45:16.972Z,32.31
2019-06-20T23:47:45.046Z,32.29
2019-06-20T23:50:19.515Z,32.30
2019-06-20T23:52:51.090Z,32.59
2019-06-20T23:55:19.436Z,32.68
2019-06-20T23:57:48.016Z,32.78
